Time;durP1;ratioP1;P1;durP2;ratioP2;P2;SDS_P1;SDS_P2;PMS_P1;PMS_P2;Temp;Humidity;BMP_temperature;BMP_pressure;BME280_temperature;BME280_humidity;BME280_pressure;Samples;Min_cycle;Max_cycle;Signal;HPM_P1;HPM_P2
2023/04/15 00:00:16;;;;;;;5.43;1.20;;;;;;;5.32;70.13;97679.16;4978982;28;20257;-64
2023/04/15 00:02:47;;;;;;;2.53;1.07;;;;;;;5.27;70.54;97678.75;4981434;28;20967;-64
2023/04/15 00:05:13;;;;;;;1.60;0.90;;;;;;;5.28;69.61;97675.22;4977573;28;20247;-64
2023/04/15 00:07:40;;;;;;;4.30;0.90;;;;;;;5.34;70.53;97670.44;4978351;28;20237;-64
2023/04/15 00:10:08;;;;;;;3.93;1.50;;;;;;;5.35;70.64;97667.69;4974538;28;20222;-64
2023/04/15 00:12:34;;;;;;;3.67;1.20;;;;;;;5.34;71.16;97665.25;4978511;28;20381;-64
2023/04/15 00:15:02;;;;;;;5.87;1.60;;;;;;;5.32;70.42;97667.97;4979204;28;20236;-64
2023/04/15 00:17:29;;;;;;;5.43;1.40;;;;;;;5.25;73.06;97672.09;4971255;28;20252;-64
2023/04/15 00:19:56;;;;;;;3.27;1.20;;;;;;;5.19;72.46;97660.53;4989699;28;20237;-64
2023/04/15 00:22:23;;;;;;;2.00;0.93;;;;;;;5.26;72.98;97663.38;4976006;28;20558;-64
2023/04/15 00:24:49;;;;;;;2.87;1.27;;;;;;;5.28;71.95;97661.47;4977150;28;20241;-64
2023/04/15 00:27:16;;;;;;;2.00;0.90;;;;;;;5.35;72.22;97659.94;4976069;28;20241;-64
2023/04/15 00:29:42;;;;;;;6.57;1.00;;;;;;;5.30;73.45;97664.75;4978201;28;20299;-65
2023/04/15 00:32:10;;;;;;;3.40;1.33;;;;;;;5.24;73.13;97665.31;4977252;28;20232;-64
2023/04/15 00:34:37;;;;;;;4.23;1.30;;;;;;;5.17;74.50;97663.28;4981080;28;20243;-61
2023/04/15 00:37:03;;;;;;;4.53;1.10;;;;;;;5.08;74.61;97660.69;4981571;28;20232;-64
2023/04/15 00:39:30;;;;;;;3.13;1.13;;;;;;;4.99;75.94;97667.53;4978128;28;20236;-64
2023/04/15 00:41:57;;;;;;;2.57;1.13;;;;;;;4.98;76.87;97671.88;4973276;28;20225;-64
2023/04/15 00:44:24;;;;;;;3.63;1.20;;;;;;;4.89;78.01;97672.69;4973200;28;20246;-64
2023/04/15 00:46:51;;;;;;;3.47;1.20;;;;;;;4.84;77.05;97670.53;4976541;28;20316;-64
2023/04/15 00:49:20;;;;;;;5.00;1.10;;;;;;;4.75;77.22;97670.56;4974424;28;20225;-64
2023/04/15 00:51:46;;;;;;;2.67;1.23;;;;;;;4.62;76.98;97669.06;4973869;28;20288;-64
2023/04/15 00:54:16;;;;;;;7.03;1.53;;;;;;;4.56;79.38;97664.44;4975066;28;20681;-64
2023/04/15 00:56:43;;;;;;;6.13;1.30;;;;;;;4.51;80.56;97669.19;4972507;28;20923;-64
2023/04/15 00:59:10;;;;;;;9.77;1.37;;;;;;;4.43;80.44;97664.69;4963368;28;20232;-64
2023/04/15 01:01:37;;;;;;;2.37;1.30;;;;;;;4.38;81.18;97664.28;4982102;28;20233;-64
2023/04/15 01:04:05;;;;;;;3.53;1.30;;;;;;;4.45;83.38;97664.56;4973054;28;20232;-64
2023/04/15 01:06:33;;;;;;;3.30;1.37;;;;;;;4.41;83.51;97659.69;4968518;28;20230;-64
2023/04/15 01:09:00;;;;;;;5.30;1.37;;;;;;;4.26;83.21;97655.84;4970760;28;20235;-64
2023/04/15 01:11:27;;;;;;;4.57;1.30;;;;;;;4.11;83.88;97661.41;4971033;28;20605;-64
2023/04/15 01:13:55;;;;;;;4.57;1.37;;;;;;;4.04;86.03;97668.06;4983597;28;20271;-64
2023/04/15 01:16:22;;;;;;;2.73;1.50;;;;;;;4.05;86.56;97666.31;4973776;28;20241;-64
2023/04/15 01:18:49;;;;;;;2.30;1.13;;;;;;;3.97;86.12;97674.69;4971697;28;20229;-64
2023/04/15 01:21:16;;;;;;;4.90;1.60;;;;;;;3.88;87.11;97667.75;4971832;28;20233;-64
2023/04/15 01:23:47;;;;;;;5.53;1.53;;;;;;;3.79;87.62;97661.63;4983927;28;20245;-64
2023/04/15 01:26:16;;;;;;;4.77;1.60;;;;;;;3.71;87.08;97661.44;4974204;28;20234;-64
2023/04/15 01:28:42;;;;;;;2.97;1.13;;;;;;;3.64;87.74;97651.66;4983507;28;20280;-64
2023/04/15 01:31:12;;;;;;;9.33;1.37;;;;;;;3.64;88.33;97661.16;4971520;28;20236;-64
2023/04/15 01:33:39;;;;;;;4.03;1.42;;;;;;;3.71;88.53;97666.63;4982683;28;20450;-64
2023/04/15 01:36:08;;;;;;;4.53;1.57;;;;;;;3.65;87.87;97665.38;4973907;28;20242;-64
2023/04/15 01:38:35;;;;;;;2.83;1.30;;;;;;;3.57;87.73;97660.06;4975531;28;20229;-64
2023/04/15 01:41:03;;;;;;;3.30;1.30;;;;;;;3.47;88.97;97668.56;4971267;28;20241;-64
2023/04/15 01:43:31;;;;;;;3.60;1.20;;;;;;;3.52;90.12;97665.59;4974955;28;20703;-64
2023/04/15 01:45:57;;;;;;;5.67;1.40;;;;;;;3.39;89.89;97664.03;4974947;28;20268;-64
2023/04/15 01:48:25;;;;;;;3.63;1.40;;;;;;;3.33;89.81;97658.59;4975429;28;20240;-64
2023/04/15 01:50:53;;;;;;;2.43;1.20;;;;;;;3.24;89.82;97657.59;4977368;28;20241;-64
2023/04/15 01:53:21;;;;;;;6.40;1.30;;;;;;;3.15;91.00;97654.03;4972106;28;20295;-65
2023/04/15 01:55:47;;;;;;;6.00;1.40;;;;;;;3.13;92.99;97655.13;4975789;28;20799;-62
2023/04/15 01:58:15;;;;;;;4.80;1.43;;;;;;;3.07;93.81;97653.84;4972424;28;20707;-62
2023/04/15 02:00:43;;;;;;;4.90;1.50;;;;;;;3.08;94.39;97655.47;4976790;28;20233;-62
2023/04/15 02:03:09;;;;;;;4.83;1.43;;;;;;;3.10;93.54;97649.25;4970398;28;20244;-62
2023/04/15 02:05:36;;;;;;;4.40;1.40;;;;;;;3.08;93.13;97646.00;4974997;28;20605;-63
2023/04/15 02:08:04;;;;;;;2.90;1.30;;;;;;;3.02;92.76;97649.09;4973179;28;20280;-63
2023/04/15 02:10:30;;;;;;;4.50;1.33;;;;;;;3.09;95.31;97645.06;4971885;28;20237;-63
2023/04/15 02:12:57;;;;;;;4.47;1.40;;;;;;;3.14;93.52;97649.81;4989924;28;20835;-63
2023/04/15 02:15:27;;;;;;;3.87;1.70;;;;;;;3.30;96.10;97644.19;4974404;28;20242;-63
2023/04/15 02:17:55;;;;;;;3.40;1.40;;;;;;;3.25;95.89;97643.75;4991950;28;20316;-63
2023/04/15 02:20:22;;;;;;;4.87;1.57;;;;;;;3.20;96.33;97653.63;4991075;28;20736;-63
2023/04/15 02:22:50;;;;;;;4.73;1.60;;;;;;;3.14;95.45;97649.81;4977955;28;20264;-63
2023/04/15 02:25:20;;;;;;;3.30;1.47;;;;;;;3.12;94.39;97656.84;4972741;28;20565;-63
2023/04/15 02:27:46;;;;;;;4.93;1.60;;;;;;;3.04;94.94;97654.09;4972398;28;20312;-63
2023/04/15 02:30:13;;;;;;;3.37;1.10;;;;;;;3.07;95.60;97659.00;4972068;28;20287;-63
2023/04/15 02:32:42;;;;;;;4.83;1.30;;;;;;;2.98;94.88;97659.75;4979697;28;20677;-63
2023/04/15 02:35:10;;;;;;;6.63;1.60;;;;;;;2.93;95.14;97657.56;4974370;28;20768;-63
2023/04/15 02:37:42;;;;;;;7.60;1.80;;;;;;;2.94;94.97;97660.00;4998586;28;20223;-63
2023/04/15 02:40:11;;;;;;;3.03;1.37;;;;;;;3.02;93.92;97659.41;4999692;28;20239;-63
2023/04/15 02:42:38;;;;;;;4.40;1.23;;;;;;;3.05;93.26;97656.56;5012906;28;20258;-64
2023/04/15 02:45:07;;;;;;;4.40;1.57;;;;;;;3.06;94.37;97663.34;5000415;28;20225;-64
2023/04/15 02:47:35;;;;;;;4.90;1.43;;;;;;;3.23;94.89;97659.38;4984424;28;20359;-63
2023/04/15 02:50:05;;;;;;;3.87;1.30;;;;;;;3.32;96.13;97657.75;4967325;28;20221;-63
2023/04/15 02:52:33;;;;;;;3.27;1.10;;;;;;;3.27;95.66;97649.59;4976070;28;20689;-64
2023/04/15 02:55:03;;;;;;;6.87;1.57;;;;;;;3.16;96.61;97662.59;4978414;28;20228;-64
2023/04/15 02:57:29;;;;;;;5.10;1.60;;;;;;;3.08;95.43;97656.31;4975747;28;20237;-64
2023/04/15 03:00:03;;;;;;;6.50;1.30;;;;;;;3.02;95.55;97656.81;4960147;28;20841;-64
2023/04/15 03:02:40;;;;;;;8.30;1.63;;;;;;;3.04;96.12;97662.66;4972108;28;20299;-64
2023/04/15 03:05:12;;;;;;;10.83;1.90;;;;;;;3.04;96.00;97659.25;4979985;28;20233;-64
2023/04/15 03:07:46;;;;;;;7.00;1.73;;;;;;;3.00;96.16;97663.84;4963817;28;20222;-64
2023/04/15 03:10:12;;;;;;;3.60;1.20;;;;;;;2.89;95.78;97669.88;4967581;28;20243;-64
2023/04/15 03:12:40;;;;;;;4.07;1.30;;;;;;;2.91;97.14;97665.41;4980105;28;20243;-64
2023/04/15 03:15:09;;;;;;;5.93;1.67;;;;;;;2.88;97.33;97670.81;4978471;28;20249;-64
2023/04/15 03:17:40;;;;;;;4.00;1.33;;;;;;;2.89;96.75;97669.06;4982948;28;20585;-64
2023/04/15 03:20:08;;;;;;;6.03;1.27;;;;;;;2.87;96.82;97663.22;4975735;28;20237;-64
2023/04/15 03:22:35;;;;;;;4.27;1.30;;;;;;;2.86;97.23;97671.91;4973288;28;20237;-64
2023/04/15 03:25:05;;;;;;;3.67;1.40;;;;;;;2.84;97.95;97663.47;4969577;28;20225;-64
2023/04/15 03:27:32;;;;;;;4.70;1.43;;;;;;;2.90;97.56;97671.50;4975531;28;20235;-64
2023/04/15 03:30:01;;;;;;;5.77;1.37;;;;;;;2.97;96.82;97671.84;4974332;28;20246;-64
2023/04/15 03:32:47;;;;;;;2.93;1.30;;;;;;;2.89;97.13;97666.50;5207180;22;20258;-55
2023/04/15 03:35:14;;;;;;;3.80;1.40;;;;;;;2.88;98.38;97667.44;5011725;28;20318;-56
2023/04/15 03:37:41;;;;;;;2.87;1.50;;;;;;;2.88;98.68;97664.88;5018654;28;20232;-54
2023/04/15 03:40:10;;;;;;;6.57;1.60;;;;;;;2.81;99.40;97664.53;5012038;28;20227;-56
2023/04/15 03:42:36;;;;;;;4.90;1.50;;;;;;;2.81;99.15;97667.09;4997918;28;20933;-56
2023/04/15 03:45:03;;;;;;;7.30;1.70;;;;;;;2.87;99.38;97664.03;4992412;28;20572;-54
2023/04/15 03:47:30;;;;;;;4.50;1.20;;;;;;;2.89;99.28;97662.16;5000017;28;20244;-57
2023/04/15 03:49:57;;;;;;;4.47;1.30;;;;;;;2.87;98.67;97670.97;4997939;28;20243;-56
2023/04/15 03:52:23;;;;;;;3.30;1.43;;;;;;;2.76;98.70;97664.91;4994692;28;20243;-56
2023/04/15 03:54:50;;;;;;;6.43;1.40;;;;;;;2.85;98.55;97667.69;4997225;28;20247;-53
2023/04/15 03:57:18;;;;;;;5.37;1.80;;;;;;;2.74;98.55;97671.97;4994242;28;20244;-54
2023/04/15 03:59:44;;;;;;;3.20;1.47;;;;;;;2.81;96.68;97674.84;4997318;28;20224;-53
2023/04/15 04:02:11;;;;;;;9.37;1.50;;;;;;;2.80;96.72;97674.03;4993419;28;20240;-54
2023/04/15 04:04:38;;;;;;;3.77;1.50;;;;;;;2.72;95.94;97671.28;4997439;28;20229;-53
2023/04/15 04:07:04;;;;;;;4.77;1.50;;;;;;;2.71;95.91;97672.22;4993130;28;20236;-55
2023/04/15 04:09:31;;;;;;;2.83;1.43;;;;;;;2.86;96.50;97672.72;4996310;28;20610;-54
2023/04/15 04:11:57;;;;;;;5.77;1.83;;;;;;;2.83;97.51;97667.00;5006453;28;20289;-56
2023/04/15 04:14:28;;;;;;;3.33;1.50;;;;;;;2.80;96.63;97674.03;5013972;28;20232;-56
2023/04/15 04:16:55;;;;;;;5.00;1.40;;;;;;;2.79;96.96;97672.41;5016429;28;20287;-53
2023/04/15 04:19:21;;;;;;;4.67;1.50;;;;;;;2.72;97.07;97670.44;4986544;28;20235;-54
2023/04/15 04:21:48;;;;;;;4.83;1.50;;;;;;;2.62;96.69;97671.22;4996943;28;20701;-53
2023/04/15 04:24:15;;;;;;;4.70;1.43;;;;;;;2.66;97.21;97672.56;4992848;28;20620;-53
2023/04/15 04:26:42;;;;;;;3.47;1.60;;;;;;;2.60;96.87;97678.25;4994021;28;20233;-55
2023/04/15 04:29:09;;;;;;;3.20;1.43;;;;;;;2.62;97.97;97676.34;4994507;28;20260;-53
2023/04/15 04:31:36;;;;;;;4.53;1.80;;;;;;;2.53;98.59;97679.69;4995851;28;20242;-55
2023/04/15 04:34:03;;;;;;;4.90;1.40;;;;;;;2.57;98.20;97675.06;4976398;28;20265;-53
2023/04/15 04:36:29;;;;;;;4.23;1.50;;;;;;;2.50;98.57;97673.00;5005595;28;20286;-53
2023/04/15 04:38:56;;;;;;;5.10;1.93;;;;;;;2.55;99.18;97679.53;5012231;28;20224;-56
2023/04/15 04:41:23;;;;;;;4.90;1.40;;;;;;;2.55;98.66;97675.22;4995990;28;20293;-54
2023/04/15 04:43:49;;;;;;;4.87;1.50;;;;;;;2.55;98.74;97666.66;5013776;28;20584;-54
2023/04/15 04:46:16;;;;;;;5.93;1.70;;;;;;;2.67;99.24;97678.56;5011783;28;20905;-55
2023/04/15 04:48:44;;;;;;;3.63;1.53;;;;;;;2.72;100.00;97673.84;5014038;28;20235;-56
2023/04/15 04:51:11;;;;;;;3.03;1.43;;;;;;;2.78;99.52;97669.94;5004238;28;20243;-55
2023/04/15 04:53:37;;;;;;;4.67;1.63;;;;;;;2.93;99.17;97670.47;4998376;28;20322;-52
2023/04/15 04:56:05;;;;;;;4.07;1.20;;;;;;;2.94;98.13;97678.06;4998366;28;20241;-52
2023/04/15 04:58:31;;;;;;;2.87;1.40;;;;;;;2.98;98.55;97676.06;5014283;28;20613;-51
2023/04/15 05:00:58;;;;;;;5.83;2.70;;;;;;;3.15;98.20;97677.22;5015387;28;20235;-54
2023/04/15 05:03:25;;;;;;;9.27;5.17;;;;;;;3.22;98.07;97673.19;5011151;28;20610;-55
2023/04/15 05:05:53;;;;;;;16.10;9.00;;;;;;;3.28;97.97;97676.22;5014976;28;20702;-53
2023/04/15 05:08:20;;;;;;;14.70;9.23;;;;;;;3.39;97.46;97678.72;5012868;28;20239;-55
2023/04/15 05:10:46;;;;;;;5.23;2.93;;;;;;;3.47;96.78;97676.31;5014408;28;20231;-55
2023/04/15 05:13:13;;;;;;;4.27;2.20;;;;;;;3.50;96.22;97675.22;5010708;28;20290;-52
2023/04/15 05:15:42;;;;;;;6.90;2.80;;;;;;;3.56;95.39;97682.44;4983834;28;20233;-53
2023/04/15 05:18:08;;;;;;;5.00;3.37;;;;;;;3.79;94.36;97683.06;4991083;28;20244;-52
2023/04/15 05:20:35;;;;;;;11.57;7.57;;;;;;;3.82;94.14;97685.38;5002505;28;20266;-53
2023/04/15 05:23:03;;;;;;;5.80;3.43;;;;;;;3.86;93.49;97682.53;5000386;28;20289;-55
2023/04/15 05:25:29;;;;;;;4.10;1.43;;;;;;;3.93;94.99;97692.22;5015309;28;20236;-53
2023/04/15 05:27:56;;;;;;;3.73;1.67;;;;;;;3.93;94.87;97697.41;5014322;28;20250;-52
2023/04/15 05:30:22;;;;;;;3.43;1.33;;;;;;;4.07;94.34;97700.56;5010991;28;20285;-53
2023/04/15 05:32:49;;;;;;;3.33;1.50;;;;;;;4.08;93.56;97697.81;5016628;28;20688;-56
2023/04/15 05:35:16;;;;;;;6.40;1.30;;;;;;;4.12;93.56;97698.41;5012481;28;20228;-56
2023/04/15 05:37:43;;;;;;;4.03;1.10;;;;;;;4.17;93.05;97706.56;5012680;28;20274;-53
2023/04/15 05:40:12;;;;;;;3.67;1.50;;;;;;;4.20;94.66;97706.31;5001978;28;20231;-52
2023/04/15 05:42:38;;;;;;;4.63;1.60;;;;;;;4.25;93.15;97706.69;5014009;28;20318;-55
2023/04/15 05:45:08;;;;;;;3.87;1.80;;;;;;;4.29;92.53;97708.06;5004570;28;20232;-54
2023/04/15 05:47:35;;;;;;;6.10;2.17;;;;;;;4.33;93.15;97710.38;4994727;28;20322;-54
2023/04/15 05:50:02;;;;;;;3.83;1.83;;;;;;;4.36;94.35;97704.94;4991240;28;20229;-56
2023/04/15 05:52:28;;;;;;;6.83;1.97;;;;;;;4.39;93.96;97709.84;4996650;28;20232;-54
2023/04/15 05:54:55;;;;;;;7.07;3.07;;;;;;;4.42;94.34;97704.41;4992570;28;20240;-56
2023/04/15 05:57:23;;;;;;;12.67;6.83;;;;;;;4.48;93.47;97701.28;4992567;28;20245;-54
2023/04/15 05:59:51;;;;;;;3.33;1.57;;;;;;;4.53;93.27;97704.28;4993953;28;20236;-55
2023/04/15 06:02:18;;;;;;;2.23;1.57;;;;;;;4.58;93.67;97706.47;4990118;28;20241;-55
2023/04/15 06:04:44;;;;;;;5.47;2.83;;;;;;;4.65;93.99;97704.16;4994199;28;20241;-55
2023/04/15 06:07:11;;;;;;;8.10;4.27;;;;;;;4.70;94.73;97704.56;4991051;28;20233;-54
2023/04/15 06:09:37;;;;;;;8.67;4.90;;;;;;;4.78;94.39;97709.88;4995879;28;20299;-52
2023/04/15 06:12:05;;;;;;;28.73;16.20;;;;;;;4.83;93.54;97704.28;4992509;28;20240;-55
2023/04/15 06:14:33;;;;;;;5.10;2.10;;;;;;;4.88;95.98;97709.84;4996362;28;20573;-54
2023/04/15 06:17:00;;;;;;;6.03;2.10;;;;;;;4.94;95.43;97711.09;4997389;28;20299;-54
2023/04/15 06:19:26;;;;;;;4.00;1.80;;;;;;;4.96;93.29;97707.41;5004164;28;20242;-52
2023/04/15 06:21:53;;;;;;;3.80;1.70;;;;;;;5.04;91.11;97709.31;5013721;28;20240;-54
2023/04/15 06:24:19;;;;;;;5.10;1.50;;;;;;;5.12;90.73;97719.78;5011586;28;20223;-54
2023/04/15 06:26:46;;;;;;;5.43;1.50;;;;;;;5.21;90.20;97717.31;5013608;28;20228;-52
2023/04/15 06:29:15;;;;;;;4.30;1.30;;;;;;;5.29;89.44;97720.03;5012883;28;20232;-54
2023/04/15 06:31:43;;;;;;;7.50;1.40;;;;;;;5.37;88.31;97725.31;5015630;28;20278;-54
2023/04/15 06:34:10;;;;;;;5.83;2.03;;;;;;;5.49;87.10;97719.97;5010205;28;20225;-52
2023/04/15 06:36:37;;;;;;;6.17;2.40;;;;;;;5.59;87.80;97720.75;5005536;28;20260;-54
2023/04/15 06:39:03;;;;;;;8.07;2.43;;;;;;;5.69;88.04;97720.72;5009522;28;20236;-56
2023/04/15 06:41:30;;;;;;;6.77;2.47;;;;;;;5.79;88.58;97720.69;4993021;28;20233;-55
2023/04/15 06:43:56;;;;;;;7.10;3.23;;;;;;;5.88;88.48;97722.41;4992196;28;20229;-55
2023/04/15 06:46:23;;;;;;;6.07;3.07;;;;;;;5.98;86.11;97720.59;4993152;28;20232;-56
2023/04/15 06:48:51;;;;;;;6.57;3.30;;;;;;;6.06;86.45;97727.66;4995387;28;20272;-53
2023/04/15 06:51:18;;;;;;;5.93;3.20;;;;;;;6.23;87.11;97722.69;5002746;28;20236;-55
2023/04/15 06:53:44;;;;;;;8.53;4.00;;;;;;;6.37;85.86;97716.16;5014056;28;20234;-54
2023/04/15 06:56:11;;;;;;;7.90;3.90;;;;;;;6.50;84.81;97727.00;4997840;28;20324;-56
2023/04/15 06:58:37;;;;;;;7.90;3.37;;;;;;;6.60;84.77;97729.53;4995885;28;20236;-53
2023/04/15 07:01:04;;;;;;;7.68;3.40;;;;;;;6.70;84.19;97734.63;4989086;28;20439;-56
2023/04/15 07:03:31;;;;;;;5.03;3.10;;;;;;;6.79;83.72;97736.34;5015317;28;20227;-53
2023/04/15 07:06:00;;;;;;;5.47;2.60;;;;;;;6.90;83.24;97733.53;5006687;28;20232;-54
2023/04/15 07:08:27;;;;;;;4.80;2.60;;;;;;;7.02;83.02;97728.91;4999538;28;20684;-55
2023/04/15 07:10:53;;;;;;;5.63;2.97;;;;;;;7.17;83.58;97728.38;5002317;28;20621;-54
2023/04/15 07:13:20;;;;;;;3.73;2.40;;;;;;;7.29;83.49;97724.56;5007672;28;20315;-53
2023/04/15 07:15:47;;;;;;;6.00;3.20;;;;;;;7.40;82.32;97731.31;4982205;28;20890;-54
2023/04/15 07:18:13;;;;;;;11.13;4.33;;;;;;;7.50;80.08;97726.81;4989228;28;20230;-54
2023/04/15 07:20:40;;;;;;;6.00;3.40;;;;;;;7.65;78.07;97726.22;4990886;28;20297;-53
2023/04/15 07:23:08;;;;;;;10.50;4.90;;;;;;;7.81;78.16;97720.31;4990323;28;20243;-56
2023/04/15 07:25:35;;;;;;;9.40;5.07;;;;;;;7.90;76.84;97726.34;4998559;28;20565;-56
2023/04/15 07:28:01;;;;;;;8.67;4.20;;;;;;;8.01;75.40;97723.47;5014636;28;20791;-56
2023/04/15 07:30:29;;;;;;;8.23;2.30;;;;;;;8.13;76.74;97737.00;5007167;28;20238;-56
2023/04/15 07:32:56;;;;;;;7.93;3.63;;;;;;;8.26;75.43;97726.16;5004966;28;20794;-56
2023/04/15 07:35:24;;;;;;;9.93;5.83;;;;;;;8.42;75.09;97730.59;5008781;28;20471;-53
2023/04/15 07:37:51;;;;;;;7.77;3.50;;;;;;;8.48;72.54;97735.16;5013819;28;20609;-55
2023/04/15 07:40:19;;;;;;;9.23;3.73;;;;;;;8.46;72.83;97733.69;5007834;28;20225;-54
2023/04/15 07:42:47;;;;;;;9.70;3.50;;;;;;;8.41;73.30;97732.38;5006927;28;20234;-52
2023/04/15 07:45:13;;;;;;;6.73;3.60;;;;;;;8.46;74.02;97736.31;5003417;28;20863;-56
2023/04/15 07:47:41;;;;;;;6.07;3.23;;;;;;;8.48;73.17;97736.97;5005387;28;20278;-55
2023/04/15 07:50:10;;;;;;;6.77;3.60;;;;;;;8.53;72.85;97732.09;4993637;28;20235;-53
2023/04/15 07:52:38;;;;;;;9.87;3.67;;;;;;;8.60;73.29;97742.69;5001031;28;20239;-53
2023/04/15 07:55:05;;;;;;;10.20;3.93;;;;;;;8.63;73.17;97739.78;5007749;28;20229;-53
2023/04/15 07:57:33;;;;;;;8.03;4.00;;;;;;;8.75;73.75;97748.91;5013184;28;20249;-56
2023/04/15 08:00:01;;;;;;;8.80;3.87;;;;;;;8.77;72.98;97751.31;5009710;28;20222;-54
2023/04/15 08:02:39;;;;;;;9.70;3.90;;;;;;;8.72;73.54;97746.63;5008886;28;20230;-57
2023/04/15 08:05:06;;;;;;;9.63;4.40;;;;;;;8.79;73.07;97754.56;5010763;28;20235;-56
2023/04/15 08:07:33;;;;;;;8.57;3.87;;;;;;;8.84;72.15;97755.75;5011427;28;20601;-57
2023/04/15 08:10:00;;;;;;;9.70;3.90;;;;;;;8.86;70.99;97756.38;5012292;28;20230;-54
2023/04/15 08:12:26;;;;;;;7.50;4.00;;;;;;;8.92;71.64;97752.31;5011893;28;20250;-57
2023/04/15 08:14:55;;;;;;;9.93;3.63;;;;;;;9.03;72.36;97761.59;4997189;28;20235;-55
2023/04/15 08:17:22;;;;;;;6.70;3.60;;;;;;;9.10;71.80;97762.56;5010912;28;30351;-53
2023/04/15 08:19:48;;;;;;;7.83;3.40;;;;;;;9.13;72.52;97770.03;5005322;28;20769;-53
2023/04/15 08:22:15;;;;;;;10.57;3.70;;;;;;;9.26;73.34;97766.97;4994318;28;20317;-54
2023/04/15 08:24:42;;;;;;;8.70;3.73;;;;;;;9.36;71.89;97764.19;5006691;28;20629;-55
2023/04/15 08:27:09;;;;;;;6.30;3.47;;;;;;;9.36;73.95;97764.19;5002235;28;20232;-54
2023/04/15 08:29:35;;;;;;;8.77;3.40;;;;;;;9.48;72.17;97769.88;4997130;28;20755;-53
2023/04/15 08:32:04;;;;;;;9.20;3.80;;;;;;;9.44;72.89;97768.59;5000319;28;20232;-57
2023/04/15 08:34:30;;;;;;;8.73;3.60;;;;;;;9.40;72.78;97772.50;5002880;28;20230;-53
2023/04/15 08:36:57;;;;;;;5.93;3.60;;;;;;;9.58;72.69;97773.09;5015622;28;20948;-56
2023/04/15 08:39:23;;;;;;;9.17;2.93;;;;;;;9.78;71.07;97775.34;5014424;28;20295;-54
2023/04/15 08:41:55;;;;;;;5.77;2.53;;;;;;;10.05;69.39;97788.97;5015118;28;20233;-57
2023/04/15 08:44:23;;;;;;;4.17;2.40;;;;;;;10.18;66.41;97786.63;5010749;28;22008;-54
2023/04/15 08:46:51;;;;;;;7.50;2.80;;;;;;;10.27;66.16;97782.19;5014509;28;20688;-54
2023/04/15 08:49:21;;;;;;;9.33;2.37;;;;;;;10.22;66.04;97783.69;5013551;28;20222;-56
2023/04/15 08:51:49;;;;;;;6.97;2.10;;;;;;;10.27;66.51;97787.41;5016190;28;20230;-54
2023/04/15 08:54:16;;;;;;;6.80;2.50;;;;;;;10.56;63.72;97782.59;5005694;28;20716;-53
2023/04/15 08:56:42;;;;;;;4.30;2.23;;;;;;;10.56;64.73;97791.22;5008443;28;20234;-56
2023/04/15 08:59:10;;;;;;;5.37;2.40;;;;;;;10.80;64.82;97792.06;4996650;28;20219;-53
2023/04/15 09:01:37;;;;;;;4.50;2.20;;;;;;;10.80;65.96;97780.81;5002752;28;20234;-56
2023/04/15 09:04:06;;;;;;;5.83;2.20;;;;;;;10.76;65.13;97780.34;5011952;28;20222;-54
2023/04/15 09:06:35;;;;;;;6.57;2.27;;;;;;;10.86;63.96;97782.72;5001517;28;20882;-55
2023/04/15 09:09:01;;;;;;;5.60;1.77;;;;;;;11.22;58.76;97792.59;4994883;28;20239;-57
2023/04/15 09:11:30;;;;;;;5.33;2.07;;;;;;;11.42;58.83;97789.50;4997671;28;20592;-55
2023/04/15 09:13:57;;;;;;;5.97;2.17;;;;;;;11.49;59.72;97790.41;5009715;28;20231;-55
2023/04/15 09:16:23;;;;;;;5.03;2.10;;;;;;;11.55;58.28;97794.09;5002890;28;20309;-57
2023/04/15 09:18:50;;;;;;;5.23;2.10;;;;;;;11.77;57.19;97803.69;4998161;28;20272;-56
2023/04/15 09:21:18;;;;;;;5.27;1.97;;;;;;;11.80;55.94;97802.53;5011988;28;20235;-54
2023/04/15 09:23:57;;;;;;;5.53;1.80;;;;;;;11.89;54.85;97806.69;5016319;28;20241;-57
2023/04/15 09:26:35;;;;;;;6.83;1.80;;;;;;;12.11;53.20;97809.41;5014657;28;20231;-56
2023/04/15 09:29:06;;;;;;;5.87;2.07;;;;;;;12.17;54.24;97811.31;5013359;28;20346;-57
2023/04/15 09:31:33;;;;;;;4.00;1.70;;;;;;;12.32;55.15;97815.72;5003349;28;20285;-55
2023/04/15 09:34:00;;;;;;;7.17;1.90;;;;;;;12.25;54.04;97821.69;4997196;28;20691;-55
2023/04/15 09:36:28;;;;;;;6.77;1.77;;;;;;;12.22;53.83;97819.44;5011263;28;20281;-57
2023/04/15 09:38:57;;;;;;;5.87;2.17;;;;;;;12.58;52.67;97820.47;5012426;28;20239;-55
2023/04/15 09:41:24;;;;;;;3.43;1.93;;;;;;;12.63;53.09;97833.03;5011314;28;20683;-54
2023/04/15 09:43:51;;;;;;;43.50;24.53;;;;;;;12.47;54.45;97816.53;4999724;28;20512;-56
2023/04/15 09:46:18;;;;;;;5.93;2.73;;;;;;;12.64;53.40;97826.78;5010539;28;20231;-55
2023/04/15 09:48:44;;;;;;;10.13;2.13;;;;;;;12.61;50.72;97829.78;5012074;28;20640;-55
2023/04/15 09:51:11;;;;;;;6.23;2.23;;;;;;;12.90;50.41;97828.06;5011325;28;20228;-57
2023/04/15 09:53:39;;;;;;;5.93;2.00;;;;;;;13.10;50.94;97830.91;5006746;28;20231;-56
2023/04/15 09:56:09;;;;;;;5.43;2.30;;;;;;;13.27;52.03;97834.06;5009737;28;20640;-55
2023/04/15 09:58:37;;;;;;;4.03;2.10;;;;;;;13.18;53.38;97827.34;5007437;28;20241;-55
2023/04/15 10:01:06;;;;;;;4.13;2.30;;;;;;;13.55;52.30;97841.22;4992156;28;20605;-55
2023/04/15 10:03:35;;;;;;;7.43;2.83;;;;;;;13.83;49.73;97835.97;4995307;28;20670;-55
2023/04/15 10:06:04;;;;;;;4.53;1.90;;;;;;;13.43;51.43;97833.03;4995008;28;20235;-55
2023/04/15 10:08:33;;;;;;;4.40;1.90;;;;;;;13.61;49.35;97839.63;4996419;28;20563;-55
2023/04/15 10:11:02;;;;;;;4.00;1.80;;;;;;;13.65;50.12;97846.13;4995521;28;20375;-54
2023/04/15 10:13:34;;;;;;;5.50;2.00;;;;;;;13.53;49.30;97845.81;4996702;28;20374;-54
2023/04/15 10:16:05;;;;;;;4.73;2.13;;;;;;;14.01;48.56;97845.16;5014518;28;20299;-54
2023/04/15 10:18:39;;;;;;;5.27;2.30;;;;;;;14.19;47.83;97849.13;5003631;28;20266;-59
2023/04/15 10:21:08;;;;;;;5.97;1.70;;;;;;;14.20;46.71;97854.16;5010663;28;20229;-55
2023/04/15 10:23:35;;;;;;;5.53;2.23;;;;;;;14.02;46.51;97844.97;5014342;28;20692;-53
2023/04/15 10:26:04;;;;;;;6.07;2.40;;;;;;;14.21;46.93;97842.66;5013754;28;20239;-56
2023/04/15 10:28:32;;;;;;;7.13;1.97;;;;;;;14.43;46.21;97847.81;5015080;28;20648;-55
2023/04/15 10:30:59;;;;;;;4.80;2.10;;;;;;;14.56;45.08;97850.50;5015789;28;20246;-54
2023/04/15 10:33:27;;;;;;;3.87;2.00;;;;;;;14.84;45.88;97854.06;5009328;28;20562;-53
2023/04/15 10:35:55;;;;;;;4.50;1.90;;;;;;;14.87;44.00;97848.41;4999410;28;20290;-57
2023/04/15 10:38:41;;;;;;;3.67;1.70;;;;;;;15.23;43.94;97851.72;5011798;28;20250;-56
2023/04/15 10:41:16;;;;;;;6.07;2.57;;;;;;;15.17;42.86;97859.38;5003642;28;20239;-56
2023/04/15 10:43:49;;;;;;;4.20;1.80;;;;;;;15.09;42.04;97862.22;5012186;28;20227;-55
2023/04/15 10:46:19;;;;;;;5.53;1.73;;;;;;;15.41;42.72;97856.38;5009762;28;20227;-55
2023/04/15 10:48:50;;;;;;;5.17;2.03;;;;;;;15.15;43.76;97858.00;5003893;28;20231;-56
2023/04/15 10:51:17;;;;;;;5.77;1.93;;;;;;;15.40;43.84;97871.38;5002922;28;20235;-55
2023/04/15 10:53:44;;;;;;;12.50;2.40;;;;;;;15.37;43.17;97856.00;5008653;28;20275;-54
2023/04/15 10:56:10;;;;;;;7.87;2.03;;;;;;;15.80;39.93;97860.03;5007364;28;20248;-55
2023/04/15 10:58:44;;;;;;;5.27;1.97;;;;;;;15.46;41.41;97865.31;4996735;28;20242;-57
2023/04/15 11:01:13;;;;;;;13.27;3.77;;;;;;;15.45;41.82;97868.13;4992688;28;20314;-57
2023/04/15 11:03:42;;;;;;;5.73;1.90;;;;;;;15.60;41.38;97863.47;5006840;28;20641;-54
2023/04/15 11:06:10;;;;;;;3.40;1.70;;;;;;;15.42;40.64;97874.59;5010071;28;20230;-54
2023/04/15 11:08:57;;;;;;;11.70;5.27;;;;;;;15.79;39.73;97868.94;5013367;28;20227;-54
2023/04/15 11:11:59;;;;;;;8.93;3.20;;;;;;;15.93;41.42;97877.66;4993969;28;20233;-55
2023/04/15 11:14:26;;;;;;;5.27;1.90;;;;;;;15.75;39.25;97880.88;5012627;28;20226;-55
2023/04/15 11:16:53;;;;;;;4.23;2.40;;;;;;;15.48;40.97;97889.59;5015195;28;20301;-56
2023/04/15 11:19:20;;;;;;;3.90;1.83;;;;;;;15.65;39.35;97882.09;5013519;28;20236;-52
2023/04/15 11:21:47;;;;;;;6.90;2.20;;;;;;;15.85;40.67;97898.91;5015566;28;20330;-56
2023/04/15 11:24:25;;;;;;;3.10;1.37;;;;;;;14.90;38.40;97890.84;5003976;28;20216;-52
2023/04/15 11:26:57;;;;;;;4.27;1.80;;;;;;;14.69;36.81;97894.41;4996191;28;20274;-54
2023/04/15 11:29:30;;;;;;;3.50;1.70;;;;;;;15.17;35.93;97896.19;4994809;28;20233;-53
2023/04/15 11:32:05;;;;;;;9.83;1.60;;;;;;;15.47;38.42;97898.47;4993676;28;20246;-53
2023/04/15 11:34:32;;;;;;;3.90;1.20;;;;;;;15.54;36.03;97908.22;4999206;28;20227;-55
2023/04/15 11:36:59;;;;;;;5.50;1.50;;;;;;;15.62;37.63;97906.19;4992945;28;20806;-55
2023/04/15 11:39:25;;;;;;;6.80;1.60;;;;;;;15.85;38.10;97904.19;4988211;28;20216;-53
2023/04/15 11:41:52;;;;;;;6.67;2.20;;;;;;;15.10;38.64;97916.41;4993002;28;20240;-54